createdAt,value
2018-06-16T00:00:15.320Z,24.1
2018-06-16T00:01:05.977Z,24.2
2018-06-16T00:01:54.903Z,24.1
2018-06-16T00:02:46.100Z,24.1
2018-06-16T00:03:35.004Z,24.2
2018-06-16T00:04:25.899Z,24.1
2018-06-16T00:05:15.396Z,24.1
2018-06-16T00:06:05.791Z,24.1
2018-06-16T00:06:56.660Z,24.1
2018-06-16T00:07:46.969Z,24.1
2018-06-16T00:08:36.428Z,24.1
2018-06-16T00:09:26.840Z,24.1
2018-06-16T00:10:16.947Z,24.1
2018-06-16T00:11:06.330Z,24.1
2018-06-16T00:11:56.160Z,24.1
2018-06-16T00:12:47.037Z,24.1
2018-06-16T00:13:36.601Z,24.1
2018-06-16T00:14:27.223Z,24.1
2018-06-16T00:15:16.799Z,24.1
2018-06-16T00:16:06.487Z,24.1
2018-06-16T00:16:57.383Z,24.1
2018-06-16T00:17:47.208Z,24.1
2018-06-16T00:18:37.820Z,24.1
2018-06-16T00:19:26.447Z,24.1
2018-06-16T00:20:16.795Z,24.1
2018-06-16T00:21:07.655Z,24.1
2018-06-16T00:21:57.489Z,24.1
2018-06-16T00:22:47.783Z,24.1
2018-06-16T00:23:38.134Z,24.1
2018-06-16T00:24:27.088Z,24.1
2018-06-16T00:25:17.727Z,24.1
2018-06-16T00:26:08.092Z,24.1
2018-06-16T00:26:56.999Z,24.1
2018-06-16T00:27:47.666Z,24.1
2018-06-16T00:28:37.423Z,24.1
2018-06-16T00:29:27.223Z,24.1
2018-06-16T00:30:17.846Z,24.1
2018-06-16T00:31:08.181Z,24.1
2018-06-16T00:31:58.274Z,24.1
2018-06-16T00:32:48.575Z,24.1
2018-06-16T00:33:37.797Z,24.1
2018-06-16T00:34:28.725Z,24.1
2018-06-16T00:35:18.516Z,24.1
2018-06-16T00:36:08.267Z,24.1
2018-06-16T00:36:58.883Z,24.1
2018-06-16T00:37:49.226Z,24.1
2018-06-16T00:38:38.495Z,24.1
2018-06-16T00:39:28.830Z,24.1
2018-06-16T00:40:18.583Z,24.1
2018-06-16T00:41:08.920Z,24.1
2018-06-16T00:41:58.778Z,24.1
2018-06-16T00:42:49.364Z,24.1
2018-06-16T00:43:39.143Z,24.1
2018-06-16T00:44:28.635Z,24
2018-06-16T00:45:19.262Z,24.1
2018-06-16T00:46:09.368Z,24.1
2018-06-16T00:46:58.791Z,24.1
2018-06-16T00:47:49.411Z,24.1
2018-06-16T00:48:39.218Z,24.1
2018-06-16T00:49:28.718Z,24.1
2018-06-16T00:50:19.124Z,24.1
2018-06-16T00:51:10.256Z,24.1
2018-06-16T00:51:59.804Z,24.1
2018-06-16T00:52:50.228Z,24.1
2018-06-16T00:53:40.167Z,24.1
2018-06-16T00:54:30.480Z,24.1
2018-06-16T00:55:20.305Z,24.1
2018-06-16T00:56:10.097Z,24.1
2018-06-16T00:56:59.931Z,24.1
2018-06-16T00:57:49.349Z,24
2018-06-16T00:58:39.712Z,24
2018-06-16T00:59:29.762Z,24
2018-06-16T01:00:19.624Z,24
2018-06-16T01:01:10.001Z,24
2018-06-16T01:01:59.767Z,24
2018-06-16T01:02:49.908Z,24.1
2018-06-16T01:03:40.720Z,24.1
2018-06-16T01:04:29.954Z,24.1
2018-06-16T01:05:20.878Z,24
2018-06-16T01:06:10.698Z,24
2018-06-16T01:07:00.192Z,24
2018-06-16T01:07:51.250Z,24
2018-06-16T01:08:40.841Z,24
2018-06-16T01:09:30.874Z,24
2018-06-16T01:10:21.726Z,24
2018-06-16T01:11:11.274Z,24
2018-06-16T01:12:01.586Z,24
2018-06-16T01:12:51.357Z,24
2018-06-16T01:13:41.638Z,24
2018-06-16T01:14:31.741Z,24
2018-06-16T01:15:21.840Z,24
2018-06-16T01:16:11.938Z,24
2018-06-16T01:17:00.817Z,24
2018-06-16T01:17:51.683Z,23.9
2018-06-16T01:18:41.783Z,24
2018-06-16T01:19:31.571Z,23.9
2018-06-16T01:20:22.516Z,23.9
2018-06-16T01:21:11.719Z,23.9
2018-06-16T01:22:01.275Z,23.9
2018-06-16T01:22:52.417Z,23.9
2018-06-16T01:23:42.488Z,23.9
2018-06-16T01:24:31.965Z,23.9
2018-06-16T01:25:22.899Z,23.9
2018-06-16T01:26:11.810Z,23.9
2018-06-16T01:27:02.755Z,23.9
2018-06-16T01:27:52.224Z,23.9
2018-06-16T01:28:41.742Z,23.9
2018-06-16T01:29:32.101Z,23.9
2018-06-16T01:30:22.703Z,23.9
2018-06-16T01:31:12.445Z,23.9
2018-06-16T01:32:02.348Z,23.9
2018-06-16T01:32:52.899Z,23.9
2018-06-16T01:33:42.071Z,23.9
2018-06-16T01:34:32.740Z,23.9
2018-06-16T01:35:23.360Z,23.9
2018-06-16T01:36:13.152Z,23.9
2018-06-16T01:37:03.510Z,23.9
2018-06-16T01:37:53.839Z,23.9
2018-06-16T01:38:43.047Z,23.9
2018-06-16T01:39:33.714Z,23.9
2018-06-16T01:40:23.453Z,23.9
2018-06-16T01:41:13.500Z,23.9
2018-06-16T01:42:03.612Z,23.9
2018-06-16T01:42:53.947Z,23.9
2018-06-16T01:43:43.698Z,23.9
2018-06-16T01:44:33.453Z,23.9
2018-06-16T01:45:23.541Z,23.9
2018-06-16T01:46:14.159Z,23.9
2018-06-16T01:47:04.248Z,23.9
2018-06-16T01:47:54.599Z,23.9
2018-06-16T01:48:43.820Z,23.9
2018-06-16T01:49:33.577Z,23.9
2018-06-16T01:50:23.988Z,23.9
2018-06-16T01:51:13.707Z,23.9
2018-06-16T01:52:03.243Z,23.9
2018-06-16T01:52:54.417Z,23.9
2018-06-16T01:53:43.887Z,23.9
2018-06-16T01:54:34.536Z,23.9
2018-06-16T01:55:24.575Z,23.9
2018-06-16T01:56:14.911Z,23.9
2018-06-16T01:57:04.723Z,23.9
2018-06-16T01:57:55.278Z,23.9
2018-06-16T01:58:44.590Z,23.9
2018-06-16T01:59:35.170Z,23.9
2018-06-16T02:00:24.999Z,23.9
2018-06-16T02:01:14.782Z,23.9
2018-06-16T02:02:05.383Z,23.9
2018-06-16T02:02:55.181Z,23.9
2018-06-16T02:03:45.202Z,23.9
2018-06-16T02:04:35.665Z,23.9
2018-06-16T02:05:25.607Z,23.9
2018-06-16T02:06:15.447Z,23.9
2018-06-16T02:07:05.293Z,23.9
2018-06-16T02:07:56.144Z,23.9
2018-06-16T02:08:45.365Z,23.9
2018-06-16T02:09:35.977Z,23.9
2018-06-16T02:10:25.730Z,23.9
2018-06-16T02:11:15.838Z,23.9
2018-06-16T02:12:06.431Z,23.9
2018-06-16T02:12:56.192Z,23.9
2018-06-16T02:13:46.527Z,23.9
2018-06-16T02:14:36.332Z,23.9
2018-06-16T02:15:25.532Z,23.9
2018-06-16T02:16:15.906Z,23.9
2018-06-16T02:17:05.935Z,23.9
2018-06-16T02:17:56.669Z,23.9
2018-06-16T02:18:46.358Z,23.9
2018-06-16T02:19:36.465Z,23.9
2018-06-16T02:20:26.520Z,23.9
2018-06-16T02:21:16.875Z,23.8
2018-06-16T02:22:06.336Z,23.8
2018-06-16T02:22:56.195Z,23.8
2018-06-16T02:23:46.476Z,23.8
2018-06-16T02:24:36.799Z,23.9
2018-06-16T02:25:27.411Z,23.9
2018-06-16T02:26:17.231Z,23.9
2018-06-16T02:27:07.298Z,23.8
2018-06-16T02:27:57.055Z,23.8
2018-06-16T02:28:46.849Z,23.8
2018-06-16T02:29:36.967Z,23.8
2018-06-16T02:30:27.566Z,23.8
2018-06-16T02:31:17.151Z,23.8
2018-06-16T02:32:07.711Z,23.8
2018-06-16T02:32:57.767Z,23.8
2018-06-16T02:33:47.003Z,23.8
2018-06-16T02:34:38.208Z,23.8
2018-06-16T02:35:26.831Z,23.8
2018-06-16T02:36:18.337Z,23.8
2018-06-16T02:37:08.119Z,23.8
2018-06-16T02:37:57.408Z,23.8
2018-06-16T02:38:47.418Z,23.8
2018-06-16T02:39:38.664Z,23.8
2018-06-16T02:40:28.314Z,23.8
2018-06-16T02:41:17.855Z,23.8
2018-06-16T02:42:08.235Z,23.8
2018-06-16T02:42:58.228Z,23.8
2018-06-16T02:43:48.033Z,23.8
2018-06-16T02:44:38.370Z,23.8
2018-06-16T02:45:29.047Z,23.8
2018-06-16T02:46:18.527Z,23.8
2018-06-16T02:47:09.165Z,23.8
2018-06-16T02:47:58.956Z,23.8
2018-06-16T02:48:48.733Z,23.8
2018-06-16T02:49:38.508Z,23.8
2018-06-16T02:50:31.588Z,23.8
2018-06-16T02:51:18.583Z,23.8
2018-06-16T02:52:08.811Z,23.8
2018-06-16T02:52:58.520Z,23.8
2018-06-16T02:53:49.117Z,23.8
2018-06-16T02:54:39.731Z,23.8
2018-06-16T02:55:29.213Z,23.8
2018-06-16T02:56:18.443Z,23.8
2018-06-16T02:57:09.639Z,23.8
2018-06-16T02:57:59.415Z,23.8
2018-06-16T02:58:49.615Z,23.8
2018-06-16T02:59:38.931Z,23.8
2018-06-16T03:00:29.301Z,23.8
2018-06-16T03:01:19.429Z,23.8
2018-06-16T03:02:09.446Z,23.8
2018-06-16T03:02:59.220Z,23.8
2018-06-16T03:03:50.123Z,23.8
2018-06-16T03:04:40.219Z,23.8
2018-06-16T03:05:30.232Z,23.8
2018-06-16T03:06:20.094Z,23.8
2018-06-16T03:07:10.102Z,23.8
2018-06-16T03:08:00.668Z,23.8
2018-06-16T03:08:50.229Z,23.8
2018-06-16T03:09:40.591Z,23.8
2018-06-16T03:10:30.868Z,23.8
2018-06-16T03:11:20.736Z,23.8
2018-06-16T03:12:10.484Z,23.8
2018-06-16T03:13:00.278Z,23.8
2018-06-16T03:13:50.074Z,23.8
2018-06-16T03:14:40.646Z,23.8
2018-06-16T03:15:31.382Z,23.8
2018-06-16T03:16:21.179Z,23.8
2018-06-16T03:17:10.070Z,23.8
2018-06-16T03:18:00.359Z,23.8
2018-06-16T03:18:50.172Z,23.8
2018-06-16T03:19:40.513Z,23.8
2018-06-16T03:20:31.387Z,23.8
2018-06-16T03:21:21.420Z,23.8
2018-06-16T03:22:11.810Z,23.8
2018-06-16T03:23:01.585Z,23.8
2018-06-16T03:23:51.880Z,23.8
2018-06-16T03:24:41.127Z,23.8
2018-06-16T03:25:31.553Z,23.8
2018-06-16T03:26:21.858Z,23.8
2018-06-16T03:27:11.358Z,23.8
2018-06-16T03:28:01.680Z,23.8
2018-06-16T03:28:52.326Z,23.8
2018-06-16T03:29:41.811Z,23.8
2018-06-16T03:30:31.713Z,23.8
2018-06-16T03:31:22.558Z,23.8
2018-06-16T03:32:12.031Z,23.8
2018-06-16T03:33:02.075Z,23.8
2018-06-16T03:33:52.452Z,23.8
2018-06-16T03:34:42.204Z,23.8
2018-06-16T03:35:31.430Z,23.8
2018-06-16T03:36:23.443Z,23.8
2018-06-16T03:37:12.420Z,23.8
2018-06-16T03:38:01.651Z,23.8
2018-06-16T03:38:52.779Z,23.8
2018-06-16T03:39:42.564Z,23.8
2018-06-16T03:40:33.246Z,23.8
2018-06-16T03:41:22.813Z,23.8
2018-06-16T03:42:12.984Z,23.8
2018-06-16T03:43:02.781Z,23.8
2018-06-16T03:43:52.880Z,23.8
2018-06-16T03:44:42.357Z,23.8
2018-06-16T03:45:33.278Z,23.8
2018-06-16T03:46:23.425Z,23.8
2018-06-16T03:47:13.721Z,23.8
2018-06-16T03:48:02.644Z,23.8
2018-06-16T03:48:52.967Z,23.8
2018-06-16T03:49:43.084Z,23.8
2018-06-16T03:50:33.659Z,23.8
2018-06-16T03:51:24.077Z,23.8
2018-06-16T03:52:13.857Z,23.8
2018-06-16T03:53:03.576Z,23.8
2018-06-16T03:53:53.918Z,23.8
2018-06-16T03:54:43.746Z,23.8
2018-06-16T03:55:34.313Z,23.8
2018-06-16T03:56:24.162Z,23.8
2018-06-16T03:57:13.388Z,23.8
2018-06-16T03:58:04.221Z,23.8
2018-06-16T03:58:54.022Z,23.8
2018-06-16T03:59:44.071Z,23.8
2018-06-16T04:00:34.143Z,23.8
2018-06-16T04:01:23.925Z,23.8
2018-06-16T04:02:13.721Z,23.8
2018-06-16T04:03:04.647Z,23.8
2018-06-16T04:03:54.459Z,23.8
2018-06-16T04:04:44.485Z,23.8
2018-06-16T04:05:35.092Z,23.8
2018-06-16T04:06:24.921Z,23.8
2018-06-16T04:07:14.369Z,23.8
2018-06-16T04:08:04.171Z,23.8
2018-06-16T04:08:54.274Z,23.8
2018-06-16T04:09:44.836Z,23.8
2018-06-16T04:10:34.889Z,23.8
2018-06-16T04:11:24.688Z,23.8
2018-06-16T04:12:15.079Z,23.8
2018-06-16T04:13:04.958Z,23.8
2018-06-16T04:13:55.811Z,23.8
2018-06-16T04:14:45.814Z,23.8
2018-06-16T04:15:35.813Z,23.8
2018-06-16T04:16:25.124Z,23.8
2018-06-16T04:17:15.436Z,23.8
2018-06-16T04:18:05.681Z,23.8
2018-06-16T04:18:56.133Z,23.8
2018-06-16T04:19:45.333Z,23.8
2018-06-16T04:20:36.244Z,23.8
2018-06-16T04:21:26.032Z,23.8
2018-06-16T04:22:16.107Z,23.8
2018-06-16T04:23:05.082Z,23.8
2018-06-16T04:23:56.135Z,23.8
2018-06-16T04:24:45.981Z,23.8
2018-06-16T04:25:36.643Z,23.8
2018-06-16T04:26:26.704Z,23.8
2018-06-16T04:27:16.180Z,23.8
2018-06-16T04:28:06.021Z,23.8
2018-06-16T04:28:56.594Z,23.7
2018-06-16T04:29:46.137Z,23.8
2018-06-16T04:30:37.101Z,23.8
2018-06-16T04:31:26.265Z,23.8
2018-06-16T04:32:16.627Z,23.8
2018-06-16T04:33:06.629Z,23.8
2018-06-16T04:33:56.706Z,23.8
2018-06-16T04:34:46.514Z,23.8
2018-06-16T04:35:36.350Z,23.8
2018-06-16T04:36:27.258Z,23.8
2018-06-16T04:37:16.507Z,23.8
2018-06-16T04:38:05.887Z,23.8
2018-06-16T04:38:57.636Z,23.8
2018-06-16T04:39:47.469Z,23.8
2018-06-16T04:40:36.746Z,23.9
2018-06-16T04:41:25.996Z,23.9
2018-06-16T04:42:16.812Z,23.9
2018-06-16T04:43:07.444Z,23.9
2018-06-16T04:43:57.452Z,23.9
2018-06-16T04:44:47.550Z,23.9
2018-06-16T04:45:40.064Z,23.9
2018-06-16T04:46:28.233Z,23.9
2018-06-16T04:47:17.443Z,23.9
2018-06-16T04:48:07.578Z,23.8
2018-06-16T04:48:57.839Z,23.8
2018-06-16T04:49:47.654Z,23.9
2018-06-16T04:50:38.237Z,23.8
2018-06-16T04:51:28.315Z,23.9
2018-06-16T04:52:18.108Z,23.9
2018-06-16T04:53:08.157Z,23.9
2018-06-16T04:53:57.420Z,23.9
2018-06-16T04:54:48.148Z,23.9
2018-06-16T04:55:38.388Z,23.9
2018-06-16T04:56:28.486Z,23.9
2018-06-16T04:57:18.871Z,23.9
2018-06-16T04:58:08.068Z,23.9
2018-06-16T04:58:58.084Z,23.9
2018-06-16T04:59:48.103Z,23.9
2018-06-16T05:00:39.040Z,23.9
2018-06-16T05:01:28.308Z,23.9
2018-06-16T05:02:18.616Z,23.9
2018-06-16T05:03:09.215Z,23.9
2018-06-16T05:03:59.013Z,23.9
2018-06-16T05:04:49.475Z,23.9
2018-06-16T05:05:38.354Z,23.9
2018-06-16T05:06:29.180Z,23.9
2018-06-16T05:07:19.249Z,23.9
2018-06-16T05:08:09.969Z,23.9
2018-06-16T05:08:58.271Z,23.9
2018-06-16T05:09:49.450Z,23.9
2018-06-16T05:10:39.517Z,23.9
2018-06-16T05:11:29.884Z,23.9
2018-06-16T05:12:19.402Z,23.9
2018-06-16T05:13:10.049Z,23.9
2018-06-16T05:14:00.047Z,23.9
2018-06-16T05:14:49.565Z,23.9
2018-06-16T05:15:39.909Z,23.9
2018-06-16T05:16:29.995Z,23.9
2018-06-16T05:17:20.301Z,23.9
2018-06-16T05:18:09.911Z,23.9
2018-06-16T05:19:00.393Z,23.9
2018-06-16T05:19:50.439Z,23.9
2018-06-16T05:20:39.964Z,23.9
2018-06-16T05:21:29.485Z,23.9
2018-06-16T05:22:20.403Z,23.9
2018-06-16T05:23:10.266Z,23.9
2018-06-16T05:24:00.619Z,23.9
2018-06-16T05:24:50.858Z,23.9
2018-06-16T05:25:41.010Z,23.9
2018-06-16T05:26:30.724Z,23.9
2018-06-16T05:27:19.977Z,23.9
2018-06-16T05:28:11.101Z,23.9
2018-06-16T05:29:00.329Z,23.9
2018-06-16T05:29:51.011Z,24
2018-06-16T05:30:41.067Z,23.9
2018-06-16T05:31:31.065Z,23.9
2018-06-16T05:32:21.206Z,23.9
2018-06-16T05:33:11.223Z,23.9
2018-06-16T05:34:01.067Z,23.9
2018-06-16T05:34:50.483Z,23.9
2018-06-16T05:35:40.875Z,23.9
2018-06-16T05:36:32.073Z,23.9
2018-06-16T05:37:21.585Z,23.9
2018-06-16T05:38:11.876Z,23.9
2018-06-16T05:39:01.935Z,23.9
2018-06-16T05:39:51.513Z,23.9
2018-06-16T05:40:42.258Z,23.9
2018-06-16T05:41:31.654Z,23.9
2018-06-16T05:42:22.519Z,24
2018-06-16T05:43:12.535Z,24
2018-06-16T05:44:01.766Z,23.9
2018-06-16T05:44:52.389Z,23.9
2018-06-16T05:45:41.964Z,24
2018-06-16T05:46:32.572Z,23.9
2018-06-16T05:47:22.331Z,24
2018-06-16T05:48:12.420Z,24
2018-06-16T05:49:02.200Z,24
2018-06-16T05:49:52.259Z,24
2018-06-16T05:50:43.135Z,24
2018-06-16T05:51:32.684Z,24
2018-06-16T05:52:22.679Z,24
2018-06-16T05:53:12.579Z,24
2018-06-16T05:54:04.326Z,24
2018-06-16T05:54:52.380Z,23.9
2018-06-16T05:55:42.449Z,23.9
2018-06-16T05:56:32.248Z,24
2018-06-16T05:57:22.960Z,24
2018-06-16T05:58:13.166Z,24
2018-06-16T05:59:03.238Z,24
2018-06-16T05:59:53.010Z,24.1
2018-06-16T06:00:43.997Z,24
2018-06-16T06:01:33.745Z,24
2018-06-16T06:02:23.760Z,23.9
2018-06-16T06:03:14.152Z,23.9
2018-06-16T06:04:03.129Z,23.9
2018-06-16T06:04:53.708Z,23.9
2018-06-16T06:05:43.755Z,23.9
2018-06-16T06:06:34.149Z,23.9
2018-06-16T06:07:24.128Z,23.9
2018-06-16T06:08:14.170Z,23.9
2018-06-16T06:09:04.298Z,23.9
2018-06-16T06:09:54.085Z,23.9
2018-06-16T06:10:44.153Z,23.9
2018-06-16T06:11:34.570Z,23.9
2018-06-16T06:12:24.522Z,24
2018-06-16T06:13:14.695Z,24
2018-06-16T06:14:03.828Z,23.9
2018-06-16T06:14:55.054Z,23.9
2018-06-16T06:15:45.698Z,23.9
2018-06-16T06:16:34.539Z,23.9
2018-06-16T06:17:24.949Z,23.9
2018-06-16T06:18:13.873Z,23.9
2018-06-16T06:19:04.803Z,23.9
2018-06-16T06:19:54.558Z,23.9
2018-06-16T06:20:44.637Z,24
2018-06-16T06:21:34.964Z,23.9
2018-06-16T06:22:25.318Z,23.9
2018-06-16T06:23:15.409Z,23.9
2018-06-16T06:24:04.847Z,23.9
2018-06-16T06:24:55.481Z,23.8
2018-06-16T06:25:45.584Z,23.9
2018-06-16T06:26:35.679Z,23.8
2018-06-16T06:27:25.383Z,23.8
2018-06-16T06:28:15.484Z,23.9
2018-06-16T06:29:05.794Z,23.9
2018-06-16T06:29:54.784Z,23.8
2018-06-16T06:30:45.085Z,23.9
2018-06-16T06:31:36.008Z,23.9
2018-06-16T06:32:26.010Z,23.9
2018-06-16T06:33:15.057Z,23.9
2018-06-16T06:34:05.700Z,23.8
2018-06-16T06:34:55.650Z,23.8
2018-06-16T06:35:45.125Z,23.9
2018-06-16T06:36:36.408Z,23.9
2018-06-16T06:37:26.443Z,23.9
2018-06-16T06:38:16.453Z,23.9
2018-06-16T06:39:06.591Z,23.9
2018-06-16T06:39:56.590Z,23.9
2018-06-16T06:40:45.845Z,24
2018-06-16T06:41:36.734Z,24
2018-06-16T06:42:26.519Z,24
2018-06-16T06:43:16.837Z,24
2018-06-16T06:44:06.689Z,24
2018-06-16T06:44:56.685Z,24
2018-06-16T06:45:47.126Z,23.9
2018-06-16T06:46:37.080Z,23.9
2018-06-16T06:47:26.596Z,24
2018-06-16T06:48:15.807Z,24
2018-06-16T06:49:07.309Z,23.9
2018-06-16T06:49:56.521Z,23.9
2018-06-16T06:50:46.879Z,23.9
2018-06-16T06:51:37.395Z,24
2018-06-16T06:52:27.617Z,24
2018-06-16T06:53:17.113Z,24
2018-06-16T06:54:07.734Z,24
2018-06-16T06:54:57.194Z,24
2018-06-16T06:55:47.856Z,24
2018-06-16T06:56:37.094Z,24
2018-06-16T06:57:27.433Z,23.9
2018-06-16T06:58:16.309Z,24
2018-06-16T06:59:07.833Z,24
2018-06-16T06:59:57.600Z,24.1
2018-06-16T07:00:47.624Z,24
2018-06-16T07:01:37.513Z,24
2018-06-16T07:02:28.317Z,24
2018-06-16T07:03:18.659Z,24.1
2018-06-16T07:04:08.681Z,24.1
2018-06-16T07:04:58.495Z,24.1
2018-06-16T07:05:47.303Z,24.1
2018-06-16T07:06:37.809Z,24.1
2018-06-16T07:07:28.148Z,24.1
2018-06-16T07:08:18.789Z,24.1
2018-06-16T07:09:08.300Z,24.1
2018-06-16T07:09:58.896Z,24.2
2018-06-16T07:10:49.400Z,24.2
2018-06-16T07:11:39.307Z,24.1
2018-06-16T07:12:28.807Z,24.2
2018-06-16T07:13:17.470Z,24.2
2018-06-16T07:14:08.082Z,24.2
2018-06-16T07:14:58.748Z,24.2
2018-06-16T07:15:49.078Z,24.3
2018-06-16T07:16:39.670Z,24.3
2018-06-16T07:17:29.223Z,24.4
2018-06-16T07:18:19.258Z,24.4
2018-06-16T07:19:09.615Z,24.4
2018-06-16T07:19:59.656Z,24.4
2018-06-16T07:20:48.915Z,24.4
2018-06-16T07:21:39.831Z,24.5
2018-06-16T07:22:30.119Z,24.5
2018-06-16T07:23:19.347Z,24.5
2018-06-16T07:24:10.253Z,24.5
2018-06-16T07:25:00.367Z,24.5
2018-06-16T07:25:49.882Z,24.5
2018-06-16T07:26:39.461Z,24.5
2018-06-16T07:27:30.507Z,24.5
2018-06-16T07:28:20.309Z,24.6
2018-06-16T07:29:10.792Z,24.6
2018-06-16T07:30:00.153Z,24.6
2018-06-16T07:30:50.029Z,24.6
2018-06-16T07:31:40.637Z,24.6
2018-06-16T07:32:30.371Z,24.6
2018-06-16T07:33:20.682Z,24.6
2018-06-16T07:34:10.585Z,24.6
2018-06-16T07:35:00.922Z,24.7
2018-06-16T07:35:50.968Z,24.7
2018-06-16T07:36:40.355Z,24.7
2018-06-16T07:37:30.529Z,24.7
2018-06-16T07:38:20.334Z,24.7
2018-06-16T07:39:11.160Z,24.6
2018-06-16T07:39:59.910Z,24.6
2018-06-16T07:40:51.071Z,24.6
2018-06-16T07:41:41.436Z,24.6
2018-06-16T07:42:31.673Z,24.6
2018-06-16T07:43:20.160Z,24.7
2018-06-16T07:44:11.029Z,24.7
2018-06-16T07:45:00.788Z,24.8
2018-06-16T07:45:51.664Z,24.8
2018-06-16T07:46:40.961Z,24.8
2018-06-16T07:47:31.761Z,24.8
2018-06-16T07:48:21.841Z,24.8
2018-06-16T07:49:11.952Z,24.8
2018-06-16T07:50:01.430Z,24.8
2018-06-16T07:50:52.041Z,24.9
2018-06-16T07:51:42.130Z,24.8
2018-06-16T07:52:31.832Z,24.9
2018-06-16T07:53:21.345Z,24.9
2018-06-16T07:54:11.755Z,24.9
2018-06-16T07:55:02.368Z,24.9
2018-06-16T07:55:51.320Z,24.9
2018-06-16T07:56:42.291Z,24.9
2018-06-16T07:57:32.245Z,24.9
2018-06-16T07:58:22.874Z,25
2018-06-16T07:59:11.604Z,25
2018-06-16T08:00:02.195Z,25
2018-06-16T08:00:52.810Z,25
2018-06-16T08:01:42.356Z,25
2018-06-16T08:02:32.178Z,25
2018-06-16T08:03:22.222Z,25
2018-06-16T08:04:13.026Z,25
2018-06-16T08:05:02.550Z,25
2018-06-16T08:05:53.190Z,25
2018-06-16T08:06:42.932Z,25
2018-06-16T08:07:32.835Z,25
2018-06-16T08:08:23.382Z,25
2018-06-16T08:09:13.397Z,25
2018-06-16T08:10:03.266Z,25.1
2018-06-16T08:10:53.559Z,25.1
2018-06-16T08:11:43.664Z,25.1
2018-06-16T08:12:33.526Z,25.1
2018-06-16T08:13:23.768Z,25.1
2018-06-16T08:14:13.338Z,25.1
2018-06-16T08:15:04.223Z,25.1
2018-06-16T08:15:52.415Z,25.1
2018-06-16T08:16:44.058Z,25.1
2018-06-16T08:17:33.813Z,25.1
2018-06-16T08:18:24.525Z,25.1
2018-06-16T08:19:14.015Z,25.2
2018-06-16T08:20:04.005Z,25.2
2018-06-16T08:20:54.671Z,25.2
2018-06-16T08:21:44.528Z,25.2
2018-06-16T08:22:34.178Z,25.2
2018-06-16T08:23:24.251Z,25.2
2018-06-16T08:24:14.933Z,25.2
2018-06-16T08:25:04.980Z,25.3
2018-06-16T08:25:54.512Z,25.2
2018-06-16T08:26:45.086Z,25.2
2018-06-16T08:27:34.344Z,25.3
2018-06-16T08:28:24.659Z,25.3
2018-06-16T08:29:14.489Z,25.3
2018-06-16T08:30:04.845Z,25.3
2018-06-16T08:30:54.901Z,25.3
2018-06-16T08:31:44.413Z,25.3
2018-06-16T08:32:34.420Z,25.3
2018-06-16T08:33:23.920Z,25.3
2018-06-16T08:34:15.159Z,25.3
2018-06-16T08:35:05.764Z,25.3
2018-06-16T08:35:55.176Z,25.3
2018-06-16T08:36:45.577Z,25.3
2018-06-16T08:37:35.091Z,25.3
2018-06-16T08:38:26.042Z,25.3
2018-06-16T08:39:15.509Z,25.3
2018-06-16T08:40:05.368Z,25.4
2018-06-16T08:40:55.653Z,25.4
2018-06-16T08:41:46.228Z,25.4
2018-06-16T08:42:36.073Z,25.4
2018-06-16T08:43:27.391Z,25.4
2018-06-16T08:44:15.392Z,25.4
2018-06-16T08:45:05.729Z,25.4
2018-06-16T08:45:56.245Z,25.4
2018-06-16T08:46:46.421Z,25.4
2018-06-16T08:47:36.133Z,25.4
2018-06-16T08:48:26.242Z,25.4
2018-06-16T08:49:16.511Z,25.4
2018-06-16T08:50:06.598Z,25.4
2018-06-16T08:50:56.422Z,25.4
2018-06-16T08:51:46.725Z,25.4
2018-06-16T08:52:36.747Z,25.4
2018-06-16T08:53:26.642Z,25.3
2018-06-16T08:54:16.656Z,25.3
2018-06-16T08:55:07.315Z,25.4
2018-06-16T08:55:57.072Z,25.4
2018-06-16T08:56:47.443Z,25.4
2018-06-16T08:57:36.628Z,25.4
2018-06-16T08:58:26.995Z,25.4
2018-06-16T08:59:17.598Z,25.4
2018-06-16T09:00:07.196Z,25.5
2018-06-16T09:00:57.717Z,25.5
2018-06-16T09:01:47.449Z,25.5
2018-06-16T09:02:36.770Z,25.5
2018-06-16T09:03:27.673Z,25.5
2018-06-16T09:04:18.050Z,25.6
2018-06-16T09:05:06.688Z,25.5
2018-06-16T09:05:57.637Z,25.5
2018-06-16T09:06:47.140Z,25.6
2018-06-16T09:07:37.945Z,25.5
2018-06-16T09:08:27.755Z,25.5
2018-06-16T09:09:18.087Z,25.5
2018-06-16T09:10:07.656Z,25.6
2018-06-16T09:10:58.224Z,25.5
2018-06-16T09:11:47.763Z,25.6
2018-06-16T09:12:38.304Z,25.5
2018-06-16T09:13:28.480Z,25.5
2018-06-16T09:14:18.184Z,25.5
2018-06-16T09:15:08.846Z,25.5
2018-06-16T09:15:57.547Z,25.5
2018-06-16T09:16:48.460Z,25.5
2018-06-16T09:17:38.740Z,25.5
2018-06-16T09:18:28.582Z,25.5
2018-06-16T09:19:18.626Z,25.5
2018-06-16T09:20:09.052Z,25.5
2018-06-16T09:20:58.726Z,25.5
2018-06-16T09:21:49.366Z,25.5
2018-06-16T09:22:39.683Z,25.5
2018-06-16T09:23:28.210Z,25.5
2018-06-16T09:24:19.501Z,25.5
2018-06-16T09:25:09.348Z,25.4
2018-06-16T09:25:58.287Z,25.4
2018-06-16T09:26:48.920Z,25.4
2018-06-16T09:27:38.693Z,25.4
2018-06-16T09:28:29.010Z,25.4
2018-06-16T09:29:19.045Z,25.4
2018-06-16T09:30:08.895Z,25.4
2018-06-16T09:30:59.290Z,25.4
2018-06-16T09:31:51.187Z,25.4
2018-06-16T09:32:40.155Z,25.4
2018-06-16T09:33:29.395Z,25.4
2018-06-16T09:34:20.268Z,25.4
2018-06-16T09:35:09.526Z,25.4
2018-06-16T09:35:59.848Z,25.4
2018-06-16T09:36:50.226Z,25.4
2018-06-16T09:37:40.302Z,25.4
2018-06-16T09:38:29.749Z,25.4
2018-06-16T09:39:19.879Z,25.4
2018-06-16T09:40:10.457Z,25.4
2018-06-16T09:41:00.818Z,25.4
2018-06-16T09:41:50.383Z,25.4
2018-06-16T09:42:41.137Z,25.4
2018-06-16T09:43:30.118Z,25.4
2018-06-16T09:44:20.465Z,25.4
2018-06-16T09:45:10.958Z,25.4
2018-06-16T09:46:00.658Z,25.4
2018-06-16T09:46:50.683Z,25.4
2018-06-16T09:47:40.780Z,25.4
2018-06-16T09:48:30.981Z,25.4
2018-06-16T09:49:21.203Z,25.4
2018-06-16T09:50:11.276Z,25.4
2018-06-16T09:51:01.010Z,25.4
2018-06-16T09:51:51.695Z,25.4
2018-06-16T09:52:41.405Z,25.4
2018-06-16T09:53:31.250Z,25.4
2018-06-16T09:54:21.273Z,25.4
2018-06-16T09:55:11.937Z,25.5
2018-06-16T09:56:01.701Z,25.5
2018-06-16T09:56:52.005Z,25.5
2018-06-16T09:57:41.252Z,25.5
2018-06-16T09:58:31.858Z,25.5
2018-06-16T09:59:22.217Z,25.5
2018-06-16T10:00:11.784Z,25.5
2018-06-16T10:01:01.026Z,25.6
2018-06-16T10:01:51.851Z,25.6
2018-06-16T10:02:42.227Z,25.6
2018-06-16T10:03:31.800Z,25.6
2018-06-16T10:04:22.061Z,25.6
2018-06-16T10:05:12.698Z,25.6
2018-06-16T10:06:01.096Z,25.6
2018-06-16T10:06:52.554Z,25.5
2018-06-16T10:07:42.913Z,25.5
2018-06-16T10:08:32.696Z,25.5
2018-06-16T10:09:22.480Z,25.5
